sensor_id;sensor_type;location;lat;lon;timestamp;P1;durP1;ratioP1;P2;durP2;ratioP2
3211;SDS011;1618;47.056;15.472;2024-01-25T00:01:50;32.03;;;30.07;;
3211;SDS011;1618;47.056;15.472;2024-01-25T00:04:17;31.73;;;29.73;;
3211;SDS011;1618;47.056;15.472;2024-01-25T00:06:44;32.90;;;30.80;;
3211;SDS011;1618;47.056;15.472;2024-01-25T00:09:13;32.97;;;30.87;;
3211;SDS011;1618;47.056;15.472;2024-01-25T00:11:42;31.67;;;29.67;;
3211;SDS011;1618;47.056;15.472;2024-01-25T00:14:10;32.80;;;30.70;;
3211;SDS011;1618;47.056;15.472;2024-01-25T00:16:40;32.43;;;30.33;;
3211;SDS011;1618;47.056;15.472;2024-01-25T00:19:09;33.47;;;31.27;;
3211;SDS011;1618;47.056;15.472;2024-01-25T00:21:41;32.83;;;30.63;;
3211;SDS011;1618;47.056;15.472;2024-01-25T00:24:11;31.80;;;29.70;;
3211;SDS011;1618;47.056;15.472;2024-01-25T00:26:38;33.77;;;31.47;;
3211;SDS011;1618;47.056;15.472;2024-01-25T00:29:07;33.60;;;31.30;;
3211;SDS011;1618;47.056;15.472;2024-01-25T00:31:35;33.50;;;31.20;;
3211;SDS011;1618;47.056;15.472;2024-01-25T00:34:03;34.03;;;31.63;;
3211;SDS011;1618;47.056;15.472;2024-01-25T00:36:30;34.40;;;32.00;;
3211;SDS011;1618;47.056;15.472;2024-01-25T00:38:58;33.77;;;31.37;;
3211;SDS011;1618;47.056;15.472;2024-01-25T00:41:25;33.70;;;31.30;;
3211;SDS011;1618;47.056;15.472;2024-01-25T00:43:53;31.07;;;28.97;;
3211;SDS011;1618;47.056;15.472;2024-01-25T00:46:22;30.90;;;28.80;;
3211;SDS011;1618;47.056;15.472;2024-01-25T00:48:49;30.60;;;28.50;;
3211;SDS011;1618;47.056;15.472;2024-01-25T00:51:20;30.93;;;28.83;;
3211;SDS011;1618;47.056;15.472;2024-01-25T00:53:47;31.07;;;28.97;;
3211;SDS011;1618;47.056;15.472;2024-01-25T00:56:15;30.50;;;28.40;;
3211;SDS011;1618;47.056;15.472;2024-01-25T00:58:42;30.63;;;28.50;;
3211;SDS011;1618;47.056;15.472;2024-01-25T01:01:11;30.40;;;28.30;;
3211;SDS011;1618;47.056;15.472;2024-01-25T01:03:40;30.40;;;28.30;;
3211;SDS011;1618;47.056;15.472;2024-01-25T01:06:09;30.27;;;28.07;;
3211;SDS011;1618;47.056;15.472;2024-01-25T01:08:37;33.00;;;30.90;;
3211;SDS011;1618;47.056;15.472;2024-01-25T01:11:05;32.60;;;30.50;;
3211;SDS011;1618;47.056;15.472;2024-01-25T01:13:32;32.50;;;30.43;;
3211;SDS011;1618;47.056;15.472;2024-01-25T01:16:01;31.10;;;29.20;;
3211;SDS011;1618;47.056;15.472;2024-01-25T01:18:29;30.60;;;28.40;;
3211;SDS011;1618;47.056;15.472;2024-01-25T01:20:58;29.90;;;27.80;;
3211;SDS011;1618;47.056;15.472;2024-01-25T01:23:26;29.70;;;27.60;;
3211;SDS011;1618;47.056;15.472;2024-01-25T01:25:53;29.80;;;27.70;;
3211;SDS011;1618;47.056;15.472;2024-01-25T01:28:20;29.60;;;27.50;;
3211;SDS011;1618;47.056;15.472;2024-01-25T01:30:49;29.77;;;27.67;;
3211;SDS011;1618;47.056;15.472;2024-01-25T01:33:21;29.27;;;27.17;;
3211;SDS011;1618;47.056;15.472;2024-01-25T01:35:50;29.10;;;27.00;;
3211;SDS011;1618;47.056;15.472;2024-01-25T01:38:20;29.83;;;27.73;;
3211;SDS011;1618;47.056;15.472;2024-01-25T01:40:48;30.10;;;27.90;;
3211;SDS011;1618;47.056;15.472;2024-01-25T01:43:20;29.77;;;27.67;;
3211;SDS011;1618;47.056;15.472;2024-01-25T01:45:48;29.70;;;27.60;;
3211;SDS011;1618;47.056;15.472;2024-01-25T01:48:15;30.20;;;27.80;;
3211;SDS011;1618;47.056;15.472;2024-01-25T01:50:43;30.70;;;28.30;;
3211;SDS011;1618;47.056;15.472;2024-01-25T01:53:11;30.90;;;28.50;;
3211;SDS011;1618;47.056;15.472;2024-01-25T01:55:40;30.70;;;28.30;;
3211;SDS011;1618;47.056;15.472;2024-01-25T01:58:08;31.50;;;29.00;;
3211;SDS011;1618;47.056;15.472;2024-01-25T02:00:36;31.03;;;28.53;;
3211;SDS011;1618;47.056;15.472;2024-01-25T02:03:04;31.73;;;29.13;;
3211;SDS011;1618;47.056;15.472;2024-01-25T02:05:32;30.83;;;28.33;;
3211;SDS011;1618;47.056;15.472;2024-01-25T02:08:00;31.10;;;28.60;;
3211;SDS011;1618;47.056;15.472;2024-01-25T02:10:28;30.70;;;28.20;;
3211;SDS011;1618;47.056;15.472;2024-01-25T02:12:56;30.70;;;28.20;;
3211;SDS011;1618;47.056;15.472;2024-01-25T02:15:26;30.90;;;28.40;;
3211;SDS011;1618;47.056;15.472;2024-01-25T02:17:53;30.80;;;28.40;;
3211;SDS011;1618;47.056;15.472;2024-01-25T02:20:26;30.10;;;27.70;;
3211;SDS011;1618;47.056;15.472;2024-01-25T02:22:54;30.67;;;28.17;;
3211;SDS011;1618;47.056;15.472;2024-01-25T02:25:22;31.30;;;28.80;;
3211;SDS011;1618;47.056;15.472;2024-01-25T02:27:50;31.60;;;29.10;;
3211;SDS011;1618;47.056;15.472;2024-01-25T02:30:17;31.80;;;29.20;;
3211;SDS011;1618;47.056;15.472;2024-01-25T02:32:44;31.90;;;29.30;;
3211;SDS011;1618;47.056;15.472;2024-01-25T02:35:12;31.40;;;28.80;;
3211;SDS011;1618;47.056;15.472;2024-01-25T02:37:40;31.60;;;29.00;;
3211;SDS011;1618;47.056;15.472;2024-01-25T02:40:10;33.90;;;31.40;;
3211;SDS011;1618;47.056;15.472;2024-01-25T02:42:39;34.07;;;31.57;;
3211;SDS011;1618;47.056;15.472;2024-01-25T02:45:06;34.07;;;31.57;;
3211;SDS011;1618;47.056;15.472;2024-01-25T02:47:35;33.70;;;31.20;;
3211;SDS011;1618;47.056;15.472;2024-01-25T02:50:02;31.10;;;28.60;;
3211;SDS011;1618;47.056;15.472;2024-01-25T02:52:30;30.80;;;28.20;;
3211;SDS011;1618;47.056;15.472;2024-01-25T02:54:57;30.73;;;28.23;;
3211;SDS011;1618;47.056;15.472;2024-01-25T02:57:28;30.87;;;28.37;;
3211;SDS011;1618;47.056;15.472;2024-01-25T02:59:57;31.10;;;28.50;;
3211;SDS011;1618;47.056;15.472;2024-01-25T03:02:24;30.87;;;28.27;;
3211;SDS011;1618;47.056;15.472;2024-01-25T03:04:52;30.27;;;27.77;;
3211;SDS011;1618;47.056;15.472;2024-01-25T03:07:20;31.60;;;29.00;;
3211;SDS011;1618;47.056;15.472;2024-01-25T03:09:47;31.10;;;28.50;;
3211;SDS011;1618;47.056;15.472;2024-01-25T03:12:14;31.57;;;28.93;;
3211;SDS011;1618;47.056;15.472;2024-01-25T03:14:43;30.80;;;28.30;;
3211;SDS011;1618;47.056;15.472;2024-01-25T03:17:11;30.87;;;28.37;;
3211;SDS011;1618;47.056;15.472;2024-01-25T03:19:39;31.80;;;29.20;;
3211;SDS011;1618;47.056;15.472;2024-01-25T03:22:12;31.60;;;29.00;;
3211;SDS011;1618;47.056;15.472;2024-01-25T03:24:44;31.30;;;28.70;;
3211;SDS011;1618;47.056;15.472;2024-01-25T03:27:12;31.00;;;28.40;;
3211;SDS011;1618;47.056;15.472;2024-01-25T03:29:41;31.07;;;28.47;;
3211;SDS011;1618;47.056;15.472;2024-01-25T03:32:10;31.00;;;28.40;;
3211;SDS011;1618;47.056;15.472;2024-01-25T03:34:38;31.60;;;28.90;;
3211;SDS011;1618;47.056;15.472;2024-01-25T03:37:06;32.37;;;29.57;;
3211;SDS011;1618;47.056;15.472;2024-01-25T03:39:34;32.00;;;29.30;;
3211;SDS011;1618;47.056;15.472;2024-01-25T03:42:01;32.47;;;29.67;;
3211;SDS011;1618;47.056;15.472;2024-01-25T03:44:29;32.70;;;29.90;;
3211;SDS011;1618;47.056;15.472;2024-01-25T03:46:57;32.20;;;29.40;;
3211;SDS011;1618;47.056;15.472;2024-01-25T03:49:26;32.50;;;29.80;;
3211;SDS011;1618;47.056;15.472;2024-01-25T03:51:54;33.07;;;30.37;;
3211;SDS011;1618;47.056;15.472;2024-01-25T03:54:22;32.47;;;29.77;;
3211;SDS011;1618;47.056;15.472;2024-01-25T03:56:49;32.10;;;29.40;;
3211;SDS011;1618;47.056;15.472;2024-01-25T03:59:19;32.17;;;29.47;;
3211;SDS011;1618;47.056;15.472;2024-01-25T04:01:46;32.80;;;30.10;;
3211;SDS011;1618;47.056;15.472;2024-01-25T04:04:14;35.00;;;32.40;;
3211;SDS011;1618;47.056;15.472;2024-01-25T04:06:44;35.13;;;32.53;;
3211;SDS011;1618;47.056;15.472;2024-01-25T04:09:14;35.10;;;32.50;;
3211;SDS011;1618;47.056;15.472;2024-01-25T04:11:42;34.40;;;31.80;;
3211;SDS011;1618;47.056;15.472;2024-01-25T04:14:15;32.20;;;29.50;;
3211;SDS011;1618;47.056;15.472;2024-01-25T04:16:42;31.80;;;29.10;;
3211;SDS011;1618;47.056;15.472;2024-01-25T04:19:13;30.87;;;28.27;;
3211;SDS011;1618;47.056;15.472;2024-01-25T04:21:40;30.80;;;28.20;;
3211;SDS011;1618;47.056;15.472;2024-01-25T04:24:10;31.10;;;28.50;;
3211;SDS011;1618;47.056;15.472;2024-01-25T04:26:37;31.10;;;28.50;;
3211;SDS011;1618;47.056;15.472;2024-01-25T04:29:05;30.37;;;27.87;;
3211;SDS011;1618;47.056;15.472;2024-01-25T04:31:33;31.50;;;28.80;;
3211;SDS011;1618;47.056;15.472;2024-01-25T04:34:02;31.03;;;28.33;;
3211;SDS011;1618;47.056;15.472;2024-01-25T04:36:30;30.80;;;28.10;;
3211;SDS011;1618;47.056;15.472;2024-01-25T04:38:57;29.90;;;27.30;;
3211;SDS011;1618;47.056;15.472;2024-01-25T04:41:27;29.70;;;27.10;;
3211;SDS011;1618;47.056;15.472;2024-01-25T04:43:55;30.80;;;28.20;;
3211;SDS011;1618;47.056;15.472;2024-01-25T04:46:22;30.70;;;28.10;;
3211;SDS011;1618;47.056;15.472;2024-01-25T04:48:49;30.60;;;28.00;;
3211;SDS011;1618;47.056;15.472;2024-01-25T04:51:17;30.60;;;28.00;;
3211;SDS011;1618;47.056;15.472;2024-01-25T04:53:46;30.30;;;27.80;;
3211;SDS011;1618;47.056;15.472;2024-01-25T04:56:13;30.50;;;28.00;;
3211;SDS011;1618;47.056;15.472;2024-01-25T04:58:44;30.20;;;27.80;;
3211;SDS011;1618;47.056;15.472;2024-01-25T05:01:12;30.20;;;27.80;;
3211;SDS011;1618;47.056;15.472;2024-01-25T05:03:40;31.47;;;28.97;;
3211;SDS011;1618;47.056;15.472;2024-01-25T05:06:10;31.10;;;28.60;;
3211;SDS011;1618;47.056;15.472;2024-01-25T05:08:37;30.83;;;28.33;;
3211;SDS011;1618;47.056;15.472;2024-01-25T05:11:05;31.40;;;28.70;;
3211;SDS011;1618;47.056;15.472;2024-01-25T05:13:34;30.27;;;27.67;;
3211;SDS011;1618;47.056;15.472;2024-01-25T05:16:04;30.50;;;28.00;;
3211;SDS011;1618;47.056;15.472;2024-01-25T05:18:31;30.60;;;28.10;;
3211;SDS011;1618;47.056;15.472;2024-01-25T05:21:00;30.60;;;28.10;;
3211;SDS011;1618;47.056;15.472;2024-01-25T05:23:27;30.80;;;28.30;;
3211;SDS011;1618;47.056;15.472;2024-01-25T05:25:54;30.10;;;27.70;;
3211;SDS011;1618;47.056;15.472;2024-01-25T05:28:21;31.97;;;29.57;;
3211;SDS011;1618;47.056;15.472;2024-01-25T05:30:49;31.17;;;28.87;;
3211;SDS011;1618;47.056;15.472;2024-01-25T05:33:18;30.20;;;28.00;;
3211;SDS011;1618;47.056;15.472;2024-01-25T05:35:45;31.53;;;29.13;;
3211;SDS011;1618;47.056;15.472;2024-01-25T05:38:12;28.80;;;26.47;;
3211;SDS011;1618;47.056;15.472;2024-01-25T05:40:40;28.17;;;25.87;;
3211;SDS011;1618;47.056;15.472;2024-01-25T05:43:07;29.03;;;26.73;;
3211;SDS011;1618;47.056;15.472;2024-01-25T05:45:35;29.77;;;27.37;;
3211;SDS011;1618;47.056;15.472;2024-01-25T05:48:03;29.50;;;27.20;;
3211;SDS011;1618;47.056;15.472;2024-01-25T05:50:31;30.20;;;27.80;;
3211;SDS011;1618;47.056;15.472;2024-01-25T05:52:59;29.70;;;27.30;;
3211;SDS011;1618;47.056;15.472;2024-01-25T05:55:26;29.20;;;26.90;;
3211;SDS011;1618;47.056;15.472;2024-01-25T05:57:54;29.20;;;26.90;;
3211;SDS011;1618;47.056;15.472;2024-01-25T06:00:21;29.20;;;26.80;;
3211;SDS011;1618;47.056;15.472;2024-01-25T06:02:48;29.33;;;27.00;;
3211;SDS011;1618;47.056;15.472;2024-01-25T06:05:15;28.53;;;26.30;;
3211;SDS011;1618;47.056;15.472;2024-01-25T06:07:45;27.87;;;25.67;;
3211;SDS011;1618;47.056;15.472;2024-01-25T06:10:13;28.23;;;26.13;;
3211;SDS011;1618;47.056;15.472;2024-01-25T06:12:41;28.47;;;26.47;;
3211;SDS011;1618;47.056;15.472;2024-01-25T06:15:08;34.20;;;31.80;;
3211;SDS011;1618;47.056;15.472;2024-01-25T06:17:36;35.10;;;32.70;;
3211;SDS011;1618;47.056;15.472;2024-01-25T06:20:05;33.90;;;31.70;;
3211;SDS011;1618;47.056;15.472;2024-01-25T06:22:32;34.00;;;31.80;;
3211;SDS011;1618;47.056;15.472;2024-01-25T06:25:02;33.97;;;31.67;;
3211;SDS011;1618;47.056;15.472;2024-01-25T06:27:30;34.50;;;32.20;;
3211;SDS011;1618;47.056;15.472;2024-01-25T06:29:58;34.50;;;32.20;;
3211;SDS011;1618;47.056;15.472;2024-01-25T06:32:25;34.70;;;32.30;;
3211;SDS011;1618;47.056;15.472;2024-01-25T06:34:52;34.03;;;31.73;;
3211;SDS011;1618;47.056;15.472;2024-01-25T06:37:19;34.60;;;32.30;;
3211;SDS011;1618;47.056;15.472;2024-01-25T06:39:46;32.50;;;30.30;;
3211;SDS011;1618;47.056;15.472;2024-01-25T06:42:15;31.67;;;29.47;;
3211;SDS011;1618;47.056;15.472;2024-01-25T06:44:42;31.13;;;29.03;;
3211;SDS011;1618;47.056;15.472;2024-01-25T06:47:09;31.40;;;29.30;;
3211;SDS011;1618;47.056;15.472;2024-01-25T06:49:37;30.53;;;28.43;;
3211;SDS011;1618;47.056;15.472;2024-01-25T06:52:04;29.90;;;27.90;;
3211;SDS011;1618;47.056;15.472;2024-01-25T06:54:33;30.10;;;28.10;;
3211;SDS011;1618;47.056;15.472;2024-01-25T06:57:01;31.60;;;29.50;;
3211;SDS011;1618;47.056;15.472;2024-01-25T06:59:30;32.63;;;30.43;;
3211;SDS011;1618;47.056;15.472;2024-01-25T07:01:57;31.10;;;29.00;;
3211;SDS011;1618;47.056;15.472;2024-01-25T07:04:25;30.37;;;28.27;;
3211;SDS011;1618;47.056;15.472;2024-01-25T07:06:54;30.20;;;28.20;;
3211;SDS011;1618;47.056;15.472;2024-01-25T07:09:21;30.90;;;28.80;;
3211;SDS011;1618;47.056;15.472;2024-01-25T07:11:48;30.30;;;28.20;;
3211;SDS011;1618;47.056;15.472;2024-01-25T07:14:15;31.00;;;28.80;;
3211;SDS011;1618;47.056;15.472;2024-01-25T07:16:44;31.37;;;29.17;;
3211;SDS011;1618;47.056;15.472;2024-01-25T07:19:11;29.67;;;27.57;;
3211;SDS011;1618;47.056;15.472;2024-01-25T07:21:39;30.17;;;28.13;;
3211;SDS011;1618;47.056;15.472;2024-01-25T07:24:06;30.17;;;28.17;;
3211;SDS011;1618;47.056;15.472;2024-01-25T07:26:34;31.17;;;29.07;;
3211;SDS011;1618;47.056;15.472;2024-01-25T07:29:01;31.90;;;29.70;;
3211;SDS011;1618;47.056;15.472;2024-01-25T07:31:29;31.80;;;29.70;;
3211;SDS011;1618;47.056;15.472;2024-01-25T07:33:57;31.63;;;29.53;;
3211;SDS011;1618;47.056;15.472;2024-01-25T07:36:25;31.40;;;29.30;;
3211;SDS011;1618;47.056;15.472;2024-01-25T07:38:53;31.40;;;29.30;;
3211;SDS011;1618;47.056;15.472;2024-01-25T07:41:20;31.90;;;29.70;;
3211;SDS011;1618;47.056;15.472;2024-01-25T07:43:47;32.70;;;30.40;;
3211;SDS011;1618;47.056;15.472;2024-01-25T07:46:14;31.40;;;29.20;;
3211;SDS011;1618;47.056;15.472;2024-01-25T07:48:42;32.03;;;29.83;;
3211;SDS011;1618;47.056;15.472;2024-01-25T07:51:13;31.20;;;29.10;;
3211;SDS011;1618;47.056;15.472;2024-01-25T07:53:40;31.90;;;29.80;;
3211;SDS011;1618;47.056;15.472;2024-01-25T07:56:08;31.70;;;29.60;;
3211;SDS011;1618;47.056;15.472;2024-01-25T07:58:36;30.83;;;28.73;;
3211;SDS011;1618;47.056;15.472;2024-01-25T08:01:03;31.77;;;29.67;;
3211;SDS011;1618;47.056;15.472;2024-01-25T08:03:31;31.10;;;29.00;;
3211;SDS011;1618;47.056;15.472;2024-01-25T08:05:58;32.13;;;29.93;;
3211;SDS011;1618;47.056;15.472;2024-01-25T08:08:27;31.87;;;29.77;;
3211;SDS011;1618;47.056;15.472;2024-01-25T08:10:54;32.57;;;30.37;;
3211;SDS011;1618;47.056;15.472;2024-01-25T08:13:22;32.20;;;30.00;;
3211;SDS011;1618;47.056;15.472;2024-01-25T08:15:49;32.40;;;30.20;;
3211;SDS011;1618;47.056;15.472;2024-01-25T08:18:16;31.77;;;29.60;;
3211;SDS011;1618;47.056;15.472;2024-01-25T08:20:45;31.10;;;29.00;;
3211;SDS011;1618;47.056;15.472;2024-01-25T08:23:13;32.17;;;29.97;;
3211;SDS011;1618;47.056;15.472;2024-01-25T08:25:43;31.70;;;29.50;;
3211;SDS011;1618;47.056;15.472;2024-01-25T08:28:12;32.03;;;29.73;;
3211;SDS011;1618;47.056;15.472;2024-01-25T08:30:39;32.00;;;29.70;;
3211;SDS011;1618;47.056;15.472;2024-01-25T08:33:06;32.00;;;29.70;;
3211;SDS011;1618;47.056;15.472;2024-01-25T08:35:34;32.50;;;30.20;;
3211;SDS011;1618;47.056;15.472;2024-01-25T08:38:04;32.73;;;30.33;;
3211;SDS011;1618;47.056;15.472;2024-01-25T08:40:31;32.13;;;29.83;;
3211;SDS011;1618;47.056;15.472;2024-01-25T08:43:00;32.70;;;30.40;;
3211;SDS011;1618;47.056;15.472;2024-01-25T08:45:28;32.73;;;30.33;;
3211;SDS011;1618;47.056;15.472;2024-01-25T08:47:55;32.53;;;30.23;;
3211;SDS011;1618;47.056;15.472;2024-01-25T08:50:22;32.90;;;30.50;;
3211;SDS011;1618;47.056;15.472;2024-01-25T08:52:50;34.20;;;31.80;;
3211;SDS011;1618;47.056;15.472;2024-01-25T08:55:18;34.20;;;31.80;;
3211;SDS011;1618;47.056;15.472;2024-01-25T08:57:45;34.20;;;31.70;;
3211;SDS011;1618;47.056;15.472;2024-01-25T09:00:14;34.00;;;31.50;;
3211;SDS011;1618;47.056;15.472;2024-01-25T09:02:41;34.10;;;31.60;;
3211;SDS011;1618;47.056;15.472;2024-01-25T09:05:08;33.33;;;30.83;;
3211;SDS011;1618;47.056;15.472;2024-01-25T09:07:36;33.70;;;31.10;;
3211;SDS011;1618;47.056;15.472;2024-01-25T09:10:03;33.20;;;30.70;;
3211;SDS011;1618;47.056;15.472;2024-01-25T09:12:30;34.40;;;31.80;;
3211;SDS011;1618;47.056;15.472;2024-01-25T09:14:58;34.73;;;32.03;;
3211;SDS011;1618;47.056;15.472;2024-01-25T09:17:26;34.80;;;32.20;;
3211;SDS011;1618;47.056;15.472;2024-01-25T09:19:53;35.00;;;32.40;;
3211;SDS011;1618;47.056;15.472;2024-01-25T09:22:25;35.13;;;32.43;;
3211;SDS011;1618;47.056;15.472;2024-01-25T09:24:52;34.60;;;31.80;;
3211;SDS011;1618;47.056;15.472;2024-01-25T09:27:19;34.00;;;31.20;;
3211;SDS011;1618;47.056;15.472;2024-01-25T09:29:47;33.60;;;30.80;;
3211;SDS011;1618;47.056;15.472;2024-01-25T09:32:14;34.70;;;31.80;;
3211;SDS011;1618;47.056;15.472;2024-01-25T09:34:42;35.40;;;32.50;;
3211;SDS011;1618;47.056;15.472;2024-01-25T09:37:10;35.47;;;32.60;;
3211;SDS011;1618;47.056;15.472;2024-01-25T09:39:37;34.30;;;31.50;;
3211;SDS011;1618;47.056;15.472;2024-01-25T09:42:05;32.90;;;30.10;;
3211;SDS011;1618;47.056;15.472;2024-01-25T09:44:32;33.30;;;30.30;;
3211;SDS011;1618;47.056;15.472;2024-01-25T09:47:00;33.10;;;30.20;;
3211;SDS011;1618;47.056;15.472;2024-01-25T09:49:30;32.43;;;29.53;;
3211;SDS011;1618;47.056;15.472;2024-01-25T09:51:59;32.20;;;29.30;;
3211;SDS011;1618;47.056;15.472;2024-01-25T09:54:29;32.90;;;29.90;;
3211;SDS011;1618;47.056;15.472;2024-01-25T09:56:56;33.27;;;30.17;;
3211;SDS011;1618;47.056;15.472;2024-01-25T09:59:24;35.23;;;32.03;;
3211;SDS011;1618;47.056;15.472;2024-01-25T10:01:51;34.07;;;30.87;;
3211;SDS011;1618;47.056;15.472;2024-01-25T10:04:19;34.30;;;31.10;;
3211;SDS011;1618;47.056;15.472;2024-01-25T10:06:48;34.83;;;31.53;;
3211;SDS011;1618;47.056;15.472;2024-01-25T10:09:18;35.20;;;31.90;;
3211;SDS011;1618;47.056;15.472;2024-01-25T10:11:46;34.70;;;31.40;;
3211;SDS011;1618;47.056;15.472;2024-01-25T10:14:14;36.03;;;32.73;;
3211;SDS011;1618;47.056;15.472;2024-01-25T10:16:41;34.87;;;31.67;;
3211;SDS011;1618;47.056;15.472;2024-01-25T10:19:09;34.53;;;31.33;;
3211;SDS011;1618;47.056;15.472;2024-01-25T10:21:37;35.53;;;32.43;;
3211;SDS011;1618;47.056;15.472;2024-01-25T10:24:05;37.00;;;33.80;;
3211;SDS011;1618;47.056;15.472;2024-01-25T10:26:34;36.60;;;33.40;;
3211;SDS011;1618;47.056;15.472;2024-01-25T10:29:03;37.10;;;33.80;;
3211;SDS011;1618;47.056;15.472;2024-01-25T10:31:32;37.40;;;34.10;;
3211;SDS011;1618;47.056;15.472;2024-01-25T10:34:04;38.30;;;35.00;;
3211;SDS011;1618;47.056;15.472;2024-01-25T10:36:33;37.10;;;33.80;;
3211;SDS011;1618;47.056;15.472;2024-01-25T10:39:02;39.10;;;35.90;;
3211;SDS011;1618;47.056;15.472;2024-01-25T10:41:35;37.53;;;34.33;;
3211;SDS011;1618;47.056;15.472;2024-01-25T10:44:03;37.20;;;34.00;;
3211;SDS011;1618;47.056;15.472;2024-01-25T10:46:31;38.20;;;35.00;;
3211;SDS011;1618;47.056;15.472;2024-01-25T10:48:59;37.50;;;34.20;;
3211;SDS011;1618;47.056;15.472;2024-01-25T10:51:28;37.93;;;34.53;;
3211;SDS011;1618;47.056;15.472;2024-01-25T10:53:58;34.43;;;31.43;;
3211;SDS011;1618;47.056;15.472;2024-01-25T10:56:25;40.70;;;37.40;;
3211;SDS011;1618;47.056;15.472;2024-01-25T10:58:54;36.83;;;33.63;;
3211;SDS011;1618;47.056;15.472;2024-01-25T11:01:21;37.60;;;34.40;;
3211;SDS011;1618;47.056;15.472;2024-01-25T11:03:48;39.20;;;35.80;;
3211;SDS011;1618;47.056;15.472;2024-01-25T11:06:16;39.00;;;35.70;;
3211;SDS011;1618;47.056;15.472;2024-01-25T11:08:47;38.67;;;35.37;;
3211;SDS011;1618;47.056;15.472;2024-01-25T11:11:14;39.90;;;36.57;;
3211;SDS011;1618;47.056;15.472;2024-01-25T11:13:43;38.80;;;35.50;;
3211;SDS011;1618;47.056;15.472;2024-01-25T11:16:13;38.00;;;34.70;;
3211;SDS011;1618;47.056;15.472;2024-01-25T11:18:50;37.70;;;34.40;;
3211;SDS011;1618;47.056;15.472;2024-01-25T11:21:27;37.47;;;34.37;;
3211;SDS011;1618;47.056;15.472;2024-01-25T11:24:01;39.33;;;36.00;;
3211;SDS011;1618;47.056;15.472;2024-01-25T11:26:28;36.80;;;33.60;;
3211;SDS011;1618;47.056;15.472;2024-01-25T11:28:56;37.33;;;33.97;;
3211;SDS011;1618;47.056;15.472;2024-01-25T11:31:26;38.83;;;35.43;;
3211;SDS011;1618;47.056;15.472;2024-01-25T11:33:56;40.03;;;36.63;;
3211;SDS011;1618;47.056;15.472;2024-01-25T11:36:24;38.63;;;35.43;;
3211;SDS011;1618;47.056;15.472;2024-01-25T11:38:52;38.53;;;35.43;;
3211;SDS011;1618;47.056;15.472;2024-01-25T11:41:19;38.23;;;34.93;;
3211;SDS011;1618;47.056;15.472;2024-01-25T11:43:48;40.47;;;37.07;;
3211;SDS011;1618;47.056;15.472;2024-01-25T11:46:15;39.70;;;36.30;;
3211;SDS011;1618;47.056;15.472;2024-01-25T11:48:45;38.90;;;35.50;;
3211;SDS011;1618;47.056;15.472;2024-01-25T11:51:17;39.00;;;35.60;;
3211;SDS011;1618;47.056;15.472;2024-01-25T11:53:44;38.50;;;35.20;;
3211;SDS011;1618;47.056;15.472;2024-01-25T11:56:14;37.70;;;34.40;;
3211;SDS011;1618;47.056;15.472;2024-01-25T11:58:44;38.30;;;35.00;;
3211;SDS011;1618;47.056;15.472;2024-01-25T12:01:12;39.10;;;35.80;;
3211;SDS011;1618;47.056;15.472;2024-01-25T12:03:40;38.83;;;35.53;;
3211;SDS011;1618;47.056;15.472;2024-01-25T12:06:09;38.80;;;35.57;;
3211;SDS011;1618;47.056;15.472;2024-01-25T12:08:36;37.43;;;34.23;;
3211;SDS011;1618;47.056;15.472;2024-01-25T12:11:04;39.10;;;35.90;;
3211;SDS011;1618;47.056;15.472;2024-01-25T12:13:32;37.17;;;33.87;;
3211;SDS011;1618;47.056;15.472;2024-01-25T12:16:00;37.73;;;34.43;;
3211;SDS011;1618;47.056;15.472;2024-01-25T12:18:28;38.00;;;34.80;;
3211;SDS011;1618;47.056;15.472;2024-01-25T12:20:57;38.73;;;35.33;;
3211;SDS011;1618;47.056;15.472;2024-01-25T12:23:31;37.07;;;33.77;;
3211;SDS011;1618;47.056;15.472;2024-01-25T12:25:59;37.63;;;34.33;;
3211;SDS011;1618;47.056;15.472;2024-01-25T12:28:27;36.80;;;33.50;;
3211;SDS011;1618;47.056;15.472;2024-01-25T12:30:55;38.30;;;35.00;;
3211;SDS011;1618;47.056;15.472;2024-01-25T12:33:22;37.70;;;34.40;;
3211;SDS011;1618;47.056;15.472;2024-01-25T12:35:50;39.10;;;35.70;;
3211;SDS011;1618;47.056;15.472;2024-01-25T12:38:19;37.80;;;34.50;;
3211;SDS011;1618;47.056;15.472;2024-01-25T12:40:48;37.23;;;34.03;;
3211;SDS011;1618;47.056;15.472;2024-01-25T12:43:16;37.17;;;33.97;;
3211;SDS011;1618;47.056;15.472;2024-01-25T12:45:43;37.77;;;34.57;;
3211;SDS011;1618;47.056;15.472;2024-01-25T12:48:10;38.40;;;35.20;;
3211;SDS011;1618;47.056;15.472;2024-01-25T12:50:38;37.30;;;34.10;;
3211;SDS011;1618;47.056;15.472;2024-01-25T12:53:05;38.47;;;35.13;;
3211;SDS011;1618;47.056;15.472;2024-01-25T12:55:33;38.00;;;34.80;;
3211;SDS011;1618;47.056;15.472;2024-01-25T12:58:02;37.40;;;34.30;;
3211;SDS011;1618;47.056;15.472;2024-01-25T13:00:29;37.63;;;34.43;;
3211;SDS011;1618;47.056;15.472;2024-01-25T13:02:58;37.80;;;34.60;;
3211;SDS011;1618;47.056;15.472;2024-01-25T13:05:26;36.10;;;32.70;;
3211;SDS011;1618;47.056;15.472;2024-01-25T13:07:54;35.03;;;31.73;;
3211;SDS011;1618;47.056;15.472;2024-01-25T13:10:22;35.63;;;32.33;;
3211;SDS011;1618;47.056;15.472;2024-01-25T13:12:49;37.90;;;34.70;;
3211;SDS011;1618;47.056;15.472;2024-01-25T13:15:18;35.70;;;32.30;;
3211;SDS011;1618;47.056;15.472;2024-01-25T13:17:45;35.43;;;32.03;;
3211;SDS011;1618;47.056;15.472;2024-01-25T13:20:12;37.00;;;33.60;;
3211;SDS011;1618;47.056;15.472;2024-01-25T13:22:39;35.40;;;32.00;;
3211;SDS011;1618;47.056;15.472;2024-01-25T13:25:07;34.60;;;31.30;;
3211;SDS011;1618;47.056;15.472;2024-01-25T13:27:37;35.40;;;32.10;;
3211;SDS011;1618;47.056;15.472;2024-01-25T13:30:04;36.53;;;33.13;;
3211;SDS011;1618;47.056;15.472;2024-01-25T13:32:34;35.43;;;32.13;;
3211;SDS011;1618;47.056;15.472;2024-01-25T13:35:01;35.10;;;31.80;;
3211;SDS011;1618;47.056;15.472;2024-01-25T13:37:29;35.33;;;32.13;;
3211;SDS011;1618;47.056;15.472;2024-01-25T13:39:56;34.50;;;31.30;;
3211;SDS011;1618;47.056;15.472;2024-01-25T13:42:23;34.90;;;31.50;;
3211;SDS011;1618;47.056;15.472;2024-01-25T13:44:51;35.60;;;32.20;;
3211;SDS011;1618;47.056;15.472;2024-01-25T13:47:18;34.60;;;31.20;;
3211;SDS011;1618;47.056;15.472;2024-01-25T13:49:48;37.33;;;34.07;;
3211;SDS011;1618;47.056;15.472;2024-01-25T13:52:17;38.20;;;35.00;;
3211;SDS011;1618;47.056;15.472;2024-01-25T13:54:47;36.70;;;33.53;;
3211;SDS011;1618;47.056;15.472;2024-01-25T13:57:15;36.73;;;33.53;;
3211;SDS011;1618;47.056;15.472;2024-01-25T13:59:42;37.43;;;34.23;;
3211;SDS011;1618;47.056;15.472;2024-01-25T14:02:09;37.10;;;34.00;;
3211;SDS011;1618;47.056;15.472;2024-01-25T14:04:37;38.30;;;35.10;;
3211;SDS011;1618;47.056;15.472;2024-01-25T14:07:07;37.90;;;34.70;;
3211;SDS011;1618;47.056;15.472;2024-01-25T14:09:36;36.70;;;33.50;;
3211;SDS011;1618;47.056;15.472;2024-01-25T14:12:04;37.30;;;34.10;;
3211;SDS011;1618;47.056;15.472;2024-01-25T14:14:32;37.57;;;34.37;;
3211;SDS011;1618;47.056;15.472;2024-01-25T14:17:00;36.30;;;33.20;;
3211;SDS011;1618;47.056;15.472;2024-01-25T14:19:29;36.63;;;33.50;;
3211;SDS011;1618;47.056;15.472;2024-01-25T14:21:56;35.90;;;32.80;;
3211;SDS011;1618;47.056;15.472;2024-01-25T14:24:25;37.37;;;34.17;;
3211;SDS011;1618;47.056;15.472;2024-01-25T14:26:53;34.43;;;31.13;;
3211;SDS011;1618;47.056;15.472;2024-01-25T14:29:22;34.20;;;31.00;;
3211;SDS011;1618;47.056;15.472;2024-01-25T14:31:50;34.80;;;31.60;;
3211;SDS011;1618;47.056;15.472;2024-01-25T14:34:19;35.03;;;31.83;;
3211;SDS011;1618;47.056;15.472;2024-01-25T14:36:47;34.50;;;31.30;;
3211;SDS011;1618;47.056;15.472;2024-01-25T14:39:15;35.93;;;32.63;;